sensor_id;sensor_type;location;lat;lon;timestamp;temperature;humidity
843;DHT22;407;48.884;9.126;2022-10-16T00:01:23;16.80;1.00
843;DHT22;407;48.884;9.126;2022-10-16T00:03:49;16.90;9.40
843;DHT22;407;48.884;9.126;2022-10-16T00:06:16;17.00;1.00
843;DHT22;407;48.884;9.126;2022-10-16T00:08:42;16.90;1.00
843;DHT22;407;48.884;9.126;2022-10-16T00:11:11;17.00;1.00
843;DHT22;407;48.884;9.126;2022-10-16T00:13:38;17.00;1.00
843;DHT22;407;48.884;9.126;2022-10-16T00:16:06;17.10;1.00
843;DHT22;407;48.884;9.126;2022-10-16T00:18:32;17.00;1.00
843;DHT22;407;48.884;9.126;2022-10-16T00:21:03;16.90;1.00
843;DHT22;407;48.884;9.126;2022-10-16T00:23:29;16.90;1.00
843;DHT22;407;48.884;9.126;2022-10-16T00:25:57;16.90;1.00
843;DHT22;407;48.884;9.126;2022-10-16T00:28:23;16.90;1.00
843;DHT22;407;48.884;9.126;2022-10-16T00:30:49;16.80;1.00
843;DHT22;407;48.884;9.126;2022-10-16T00:33:15;16.80;1.00
843;DHT22;407;48.884;9.126;2022-10-16T00:35:40;16.80;1.00
843;DHT22;407;48.884;9.126;2022-10-16T00:38:06;16.80;1.00
843;DHT22;407;48.884;9.126;2022-10-16T00:40:31;16.80;1.00
843;DHT22;407;48.884;9.126;2022-10-16T00:42:57;16.80;1.00
843;DHT22;407;48.884;9.126;2022-10-16T00:45:23;16.90;1.00
843;DHT22;407;48.884;9.126;2022-10-16T00:47:51;16.80;1.00
843;DHT22;407;48.884;9.126;2022-10-16T00:50:34;16.80;1.00
843;DHT22;407;48.884;9.126;2022-10-16T00:53:00;16.80;1.00
843;DHT22;407;48.884;9.126;2022-10-16T00:55:27;16.80;1.00
843;DHT22;407;48.884;9.126;2022-10-16T00:57:56;16.80;1.00
843;DHT22;407;48.884;9.126;2022-10-16T01:00:25;16.90;1.00
843;DHT22;407;48.884;9.126;2022-10-16T01:03:01;16.90;1.00
843;DHT22;407;48.884;9.126;2022-10-16T01:05:45;17.00;1.00
843;DHT22;407;48.884;9.126;2022-10-16T01:08:32;16.90;1.00
843;DHT22;407;48.884;9.126;2022-10-16T01:11:17;16.80;1.00
843;DHT22;407;48.884;9.126;2022-10-16T01:13:50;16.80;1.00
843;DHT22;407;48.884;9.126;2022-10-16T01:16:33;16.90;1.00
843;DHT22;407;48.884;9.126;2022-10-16T01:19:08;17.00;1.00
843;DHT22;407;48.884;9.126;2022-10-16T01:21:39;17.00;1.00
843;DHT22;407;48.884;9.126;2022-10-16T01:24:40;16.90;1.00
843;DHT22;407;48.884;9.126;2022-10-16T01:27:25;16.90;1.00
843;DHT22;407;48.884;9.126;2022-10-16T01:32:49;17.00;1.00
843;DHT22;407;48.884;9.126;2022-10-16T01:36:09;17.10;1.00
843;DHT22;407;48.884;9.126;2022-10-16T01:38:36;17.10;1.00
843;DHT22;407;48.884;9.126;2022-10-16T01:41:15;17.10;1.00
843;DHT22;407;48.884;9.126;2022-10-16T01:43:47;17.20;1.00
843;DHT22;407;48.884;9.126;2022-10-16T01:46:17;17.20;1.00
843;DHT22;407;48.884;9.126;2022-10-16T01:48:44;17.20;1.00
843;DHT22;407;48.884;9.126;2022-10-16T01:51:12;17.20;1.00
843;DHT22;407;48.884;9.126;2022-10-16T01:53:39;17.00;1.00
843;DHT22;407;48.884;9.126;2022-10-16T01:56:09;17.10;1.00
843;DHT22;407;48.884;9.126;2022-10-16T01:58:41;17.00;1.00
843;DHT22;407;48.884;9.126;2022-10-16T02:01:10;17.00;1.00
843;DHT22;407;48.884;9.126;2022-10-16T02:03:40;16.90;1.00
843;DHT22;407;48.884;9.126;2022-10-16T02:06:07;16.90;1.00
843;DHT22;407;48.884;9.126;2022-10-16T02:08:33;16.80;1.00
843;DHT22;407;48.884;9.126;2022-10-16T02:11:00;16.80;8.10
843;DHT22;407;48.884;9.126;2022-10-16T02:13:33;16.80;2.20
843;DHT22;407;48.884;9.126;2022-10-16T02:16:01;16.90;2.30
843;DHT22;407;48.884;9.126;2022-10-16T02:18:27;16.90;1.00
843;DHT22;407;48.884;9.126;2022-10-16T02:21:10;17.00;1.00
843;DHT22;407;48.884;9.126;2022-10-16T02:26:10;17.00;1.00
843;DHT22;407;48.884;9.126;2022-10-16T02:28:50;17.10;1.00
843;DHT22;407;48.884;9.126;2022-10-16T02:31:23;17.10;1.00
843;DHT22;407;48.884;9.126;2022-10-16T02:33:51;17.10;1.00
843;DHT22;407;48.884;9.126;2022-10-16T02:36:18;17.00;1.00
843;DHT22;407;48.884;9.126;2022-10-16T02:38:44;17.00;1.00
843;DHT22;407;48.884;9.126;2022-10-16T02:41:10;17.10;1.00
843;DHT22;407;48.884;9.126;2022-10-16T02:43:35;17.10;1.00
843;DHT22;407;48.884;9.126;2022-10-16T02:46:01;17.00;1.00
843;DHT22;407;48.884;9.126;2022-10-16T02:48:26;17.00;1.00
843;DHT22;407;48.884;9.126;2022-10-16T02:50:52;17.00;1.00
843;DHT22;407;48.884;9.126;2022-10-16T02:53:17;17.00;1.00
843;DHT22;407;48.884;9.126;2022-10-16T02:55:43;17.00;1.00
843;DHT22;407;48.884;9.126;2022-10-16T02:58:09;17.00;1.00
843;DHT22;407;48.884;9.126;2022-10-16T03:00:34;17.10;1.00
843;DHT22;407;48.884;9.126;2022-10-16T03:03:00;16.90;1.00
843;DHT22;407;48.884;9.126;2022-10-16T03:05:25;17.00;1.00
843;DHT22;407;48.884;9.126;2022-10-16T03:07:51;16.90;1.00
843;DHT22;407;48.884;9.126;2022-10-16T03:10:18;16.80;1.00
843;DHT22;407;48.884;9.126;2022-10-16T03:12:44;16.80;1.00
843;DHT22;407;48.884;9.126;2022-10-16T03:15:09;16.80;1.00
843;DHT22;407;48.884;9.126;2022-10-16T03:17:35;16.80;1.00
843;DHT22;407;48.884;9.126;2022-10-16T03:20:02;16.80;1.00
843;DHT22;407;48.884;9.126;2022-10-16T03:22:28;16.70;1.00
843;DHT22;407;48.884;9.126;2022-10-16T03:24:54;16.70;1.00
843;DHT22;407;48.884;9.126;2022-10-16T03:27:19;16.60;1.00
843;DHT22;407;48.884;9.126;2022-10-16T03:29:45;16.60;1.00
843;DHT22;407;48.884;9.126;2022-10-16T03:32:10;16.60;1.00
843;DHT22;407;48.884;9.126;2022-10-16T03:34:43;16.50;8.20
843;DHT22;407;48.884;9.126;2022-10-16T03:37:08;16.50;18.90
843;DHT22;407;48.884;9.126;2022-10-16T03:39:34;16.50;35.50
843;DHT22;407;48.884;9.126;2022-10-16T03:42:00;16.50;27.50
843;DHT22;407;48.884;9.126;2022-10-16T03:44:25;16.50;45.70
843;DHT22;407;48.884;9.126;2022-10-16T03:46:51;16.60;37.60
843;DHT22;407;48.884;9.126;2022-10-16T03:49:16;16.50;17.30
843;DHT22;407;48.884;9.126;2022-10-16T03:51:42;16.50;30.30
843;DHT22;407;48.884;9.126;2022-10-16T03:54:09;16.60;20.00
843;DHT22;407;48.884;9.126;2022-10-16T03:56:34;16.60;1.00
843;DHT22;407;48.884;9.126;2022-10-16T03:59:00;16.50;2.70
843;DHT22;407;48.884;9.126;2022-10-16T04:01:25;16.50;30.40
843;DHT22;407;48.884;9.126;2022-10-16T04:03:51;16.50;1.00
843;DHT22;407;48.884;9.126;2022-10-16T04:06:17;16.60;5.10
843;DHT22;407;48.884;9.126;2022-10-16T04:08:43;16.60;1.00
843;DHT22;407;48.884;9.126;2022-10-16T04:11:09;16.50;1.00
843;DHT22;407;48.884;9.126;2022-10-16T04:13:35;16.40;1.00
843;DHT22;407;48.884;9.126;2022-10-16T04:16:00;16.50;1.00
843;DHT22;407;48.884;9.126;2022-10-16T04:18:26;16.50;1.00
843;DHT22;407;48.884;9.126;2022-10-16T04:20:53;16.50;1.00
843;DHT22;407;48.884;9.126;2022-10-16T04:23:18;16.50;6.80
843;DHT22;407;48.884;9.126;2022-10-16T04:25:44;16.40;1.00
843;DHT22;407;48.884;9.126;2022-10-16T04:28:09;16.50;5.00
843;DHT22;407;48.884;9.126;2022-10-16T04:30:38;16.50;1.00
843;DHT22;407;48.884;9.126;2022-10-16T04:33:04;16.40;1.70
843;DHT22;407;48.884;9.126;2022-10-16T04:35:29;16.40;37.20
843;DHT22;407;48.884;9.126;2022-10-16T04:37:57;16.40;66.20
843;DHT22;407;48.884;9.126;2022-10-16T04:40:23;16.40;55.10
843;DHT22;407;48.884;9.126;2022-10-16T04:42:49;16.50;30.60
843;DHT22;407;48.884;9.126;2022-10-16T04:45:14;16.60;3.30
843;DHT22;407;48.884;9.126;2022-10-16T04:47:40;16.70;1.00
843;DHT22;407;48.884;9.126;2022-10-16T04:50:06;16.70;1.00
843;DHT22;407;48.884;9.126;2022-10-16T04:52:32;16.70;1.00
843;DHT22;407;48.884;9.126;2022-10-16T04:54:58;16.70;1.00
843;DHT22;407;48.884;9.126;2022-10-16T04:57:27;16.60;1.00
843;DHT22;407;48.884;9.126;2022-10-16T04:59:53;16.60;1.00
843;DHT22;407;48.884;9.126;2022-10-16T05:02:18;16.60;1.00
843;DHT22;407;48.884;9.126;2022-10-16T05:04:44;16.70;1.00
843;DHT22;407;48.884;9.126;2022-10-16T05:07:10;16.60;1.00
843;DHT22;407;48.884;9.126;2022-10-16T05:09:35;16.60;1.00
843;DHT22;407;48.884;9.126;2022-10-16T05:12:01;16.60;1.00
843;DHT22;407;48.884;9.126;2022-10-16T05:14:27;16.60;1.00
843;DHT22;407;48.884;9.126;2022-10-16T05:16:52;16.70;1.00
843;DHT22;407;48.884;9.126;2022-10-16T05:19:18;16.70;1.00
843;DHT22;407;48.884;9.126;2022-10-16T05:21:43;16.70;1.00
843;DHT22;407;48.884;9.126;2022-10-16T05:24:09;16.70;1.00
843;DHT22;407;48.884;9.126;2022-10-16T05:26:34;16.70;1.00
843;DHT22;407;48.884;9.126;2022-10-16T05:29:00;16.70;1.00
843;DHT22;407;48.884;9.126;2022-10-16T05:31:26;16.70;1.00
843;DHT22;407;48.884;9.126;2022-10-16T05:33:51;16.70;1.00
843;DHT22;407;48.884;9.126;2022-10-16T05:36:17;16.60;1.00
843;DHT22;407;48.884;9.126;2022-10-16T05:38:43;16.50;1.00
843;DHT22;407;48.884;9.126;2022-10-16T05:41:09;16.40;7.40
843;DHT22;407;48.884;9.126;2022-10-16T05:43:35;16.30;19.40
843;DHT22;407;48.884;9.126;2022-10-16T05:46:05;16.30;58.80
843;DHT22;407;48.884;9.126;2022-10-16T05:48:32;16.30;64.00
843;DHT22;407;48.884;9.126;2022-10-16T05:51:05;16.30;71.40
843;DHT22;407;48.884;9.126;2022-10-16T05:53:33;16.30;57.20
843;DHT22;407;48.884;9.126;2022-10-16T05:55:59;16.30;91.20
843;DHT22;407;48.884;9.126;2022-10-16T05:58:28;16.30;97.50
843;DHT22;407;48.884;9.126;2022-10-16T06:00:55;16.30;77.30
843;DHT22;407;48.884;9.126;2022-10-16T06:03:21;16.40;78.00
843;DHT22;407;48.884;9.126;2022-10-16T06:05:47;16.40;64.70
843;DHT22;407;48.884;9.126;2022-10-16T06:08:13;16.40;43.40
843;DHT22;407;48.884;9.126;2022-10-16T06:10:38;16.50;53.10
843;DHT22;407;48.884;9.126;2022-10-16T06:13:04;16.60;8.60
843;DHT22;407;48.884;9.126;2022-10-16T06:15:29;16.60;1.00
843;DHT22;407;48.884;9.126;2022-10-16T06:17:55;16.60;1.00
843;DHT22;407;48.884;9.126;2022-10-16T06:20:20;16.60;1.00
843;DHT22;407;48.884;9.126;2022-10-16T06:22:46;16.50;1.00
843;DHT22;407;48.884;9.126;2022-10-16T06:25:12;16.30;24.60
843;DHT22;407;48.884;9.126;2022-10-16T06:27:40;16.20;92.40
843;DHT22;407;48.884;9.126;2022-10-16T06:30:06;16.20;99.90
843;DHT22;407;48.884;9.126;2022-10-16T06:32:32;16.20;99.90
843;DHT22;407;48.884;9.126;2022-10-16T06:34:57;16.20;99.90
843;DHT22;407;48.884;9.126;2022-10-16T06:37:23;16.20;99.90
843;DHT22;407;48.884;9.126;2022-10-16T06:39:50;16.20;99.90
843;DHT22;407;48.884;9.126;2022-10-16T06:42:18;16.20;99.90
843;DHT22;407;48.884;9.126;2022-10-16T06:44:43;16.30;99.90
843;DHT22;407;48.884;9.126;2022-10-16T06:47:09;16.30;99.90
843;DHT22;407;48.884;9.126;2022-10-16T06:49:34;16.40;99.90
843;DHT22;407;48.884;9.126;2022-10-16T06:52:00;16.50;99.90
843;DHT22;407;48.884;9.126;2022-10-16T06:54:27;16.50;99.90
843;DHT22;407;48.884;9.126;2022-10-16T06:56:52;16.60;99.90
843;DHT22;407;48.884;9.126;2022-10-16T06:59:20;16.70;80.40
843;DHT22;407;48.884;9.126;2022-10-16T07:01:46;16.80;65.80
843;DHT22;407;48.884;9.126;2022-10-16T07:04:12;18.00;27.20
843;DHT22;407;48.884;9.126;2022-10-16T07:06:37;16.80;67.60
843;DHT22;407;48.884;9.126;2022-10-16T07:09:06;16.90;49.10
843;DHT22;407;48.884;9.126;2022-10-16T07:11:32;17.00;5.70
843;DHT22;407;48.884;9.126;2022-10-16T07:13:58;17.10;28.50
843;DHT22;407;48.884;9.126;2022-10-16T07:16:26;17.10;3.50
843;DHT22;407;48.884;9.126;2022-10-16T07:18:57;17.30;1.00
843;DHT22;407;48.884;9.126;2022-10-16T07:21:26;17.30;1.00
843;DHT22;407;48.884;9.126;2022-10-16T07:23:53;17.40;1.00
843;DHT22;407;48.884;9.126;2022-10-16T07:26:19;17.30;1.00
843;DHT22;407;48.884;9.126;2022-10-16T07:28:45;17.40;1.00
843;DHT22;407;48.884;9.126;2022-10-16T07:31:13;17.40;1.00
843;DHT22;407;48.884;9.126;2022-10-16T07:33:40;17.40;1.00
843;DHT22;407;48.884;9.126;2022-10-16T07:36:07;17.50;1.00
843;DHT22;407;48.884;9.126;2022-10-16T07:38:33;17.50;1.00
843;DHT22;407;48.884;9.126;2022-10-16T07:41:06;17.60;1.00
843;DHT22;407;48.884;9.126;2022-10-16T07:43:33;17.60;1.00
843;DHT22;407;48.884;9.126;2022-10-16T07:45:59;17.50;1.00
843;DHT22;407;48.884;9.126;2022-10-16T07:48:28;17.40;1.00
843;DHT22;407;48.884;9.126;2022-10-16T07:50:57;17.30;1.00
843;DHT22;407;48.884;9.126;2022-10-16T07:53:23;17.40;1.00
843;DHT22;407;48.884;9.126;2022-10-16T07:55:49;17.40;1.00
843;DHT22;407;48.884;9.126;2022-10-16T07:58:14;17.30;1.00
843;DHT22;407;48.884;9.126;2022-10-16T08:00:40;17.30;15.40
843;DHT22;407;48.884;9.126;2022-10-16T08:03:05;17.30;8.10
843;DHT22;407;48.884;9.126;2022-10-16T08:05:32;17.40;6.90
843;DHT22;407;48.884;9.126;2022-10-16T08:07:58;17.40;18.00
843;DHT22;407;48.884;9.126;2022-10-16T08:10:25;17.70;1.00
843;DHT22;407;48.884;9.126;2022-10-16T08:12:51;18.00;1.00
843;DHT22;407;48.884;9.126;2022-10-16T08:15:17;18.30;1.00
843;DHT22;407;48.884;9.126;2022-10-16T08:17:43;18.50;1.00
843;DHT22;407;48.884;9.126;2022-10-16T08:20:10;18.70;99.90
843;DHT22;407;48.884;9.126;2022-10-16T08:22:35;19.20;99.90
843;DHT22;407;48.884;9.126;2022-10-16T08:27:31;23.80;99.90
843;DHT22;407;48.884;9.126;2022-10-16T08:29:57;24.00;1.00
843;DHT22;407;48.884;9.126;2022-10-16T08:32:23;23.40;1.00
843;DHT22;407;48.884;9.126;2022-10-16T08:34:48;22.90;1.00
843;DHT22;407;48.884;9.126;2022-10-16T08:37:14;22.70;1.00
843;DHT22;407;48.884;9.126;2022-10-16T08:39:40;22.40;1.00
843;DHT22;407;48.884;9.126;2022-10-16T08:47:43;22.30;1.00
843;DHT22;407;48.884;9.126;2022-10-16T08:50:21;22.10;1.00
843;DHT22;407;48.884;9.126;2022-10-16T08:52:47;21.70;1.00
843;DHT22;407;48.884;9.126;2022-10-16T08:55:43;22.30;2.10
843;DHT22;407;48.884;9.126;2022-10-16T08:58:15;21.30;1.00
843;DHT22;407;48.884;9.126;2022-10-16T09:00:43;21.20;4.30
843;DHT22;407;48.884;9.126;2022-10-16T09:11:49;20.60;99.90
843;DHT22;407;48.884;9.126;2022-10-16T09:22:36;20.80;99.90
843;DHT22;407;48.884;9.126;2022-10-16T09:25:11;21.60;1.00
843;DHT22;407;48.884;9.126;2022-10-16T09:27:37;22.50;99.90
843;DHT22;407;48.884;9.126;2022-10-16T09:30:12;23.40;87.80
843;DHT22;407;48.884;9.126;2022-10-16T09:32:38;24.20;1.00
843;DHT22;407;48.884;9.126;2022-10-16T09:35:09;24.70;1.00
843;DHT22;407;48.884;9.126;2022-10-16T09:37:36;24.70;1.00
843;DHT22;407;48.884;9.126;2022-10-16T09:40:02;25.10;1.00
843;DHT22;407;48.884;9.126;2022-10-16T09:42:33;25.20;1.00
843;DHT22;407;48.884;9.126;2022-10-16T09:45:00;25.00;1.00
843;DHT22;407;48.884;9.126;2022-10-16T09:47:28;24.90;1.00
843;DHT22;407;48.884;9.126;2022-10-16T09:49:58;25.50;1.00
843;DHT22;407;48.884;9.126;2022-10-16T09:52:28;25.50;1.00
843;DHT22;407;48.884;9.126;2022-10-16T09:54:55;25.90;1.00
843;DHT22;407;48.884;9.126;2022-10-16T09:57:21;26.20;1.00
843;DHT22;407;48.884;9.126;2022-10-16T10:00:08;27.00;1.00
843;DHT22;407;48.884;9.126;2022-10-16T10:02:35;27.30;1.00
843;DHT22;407;48.884;9.126;2022-10-16T10:05:04;28.30;1.00
843;DHT22;407;48.884;9.126;2022-10-16T10:07:33;28.20;1.00
843;DHT22;407;48.884;9.126;2022-10-16T10:10:03;27.00;1.00
843;DHT22;407;48.884;9.126;2022-10-16T10:12:30;26.10;1.00
843;DHT22;407;48.884;9.126;2022-10-16T10:15:10;26.00;1.00
843;DHT22;407;48.884;9.126;2022-10-16T10:17:46;25.50;1.00
843;DHT22;407;48.884;9.126;2022-10-16T10:20:28;26.00;1.00
843;DHT22;407;48.884;9.126;2022-10-16T10:22:55;27.00;1.00
843;DHT22;407;48.884;9.126;2022-10-16T10:31:19;27.60;1.00
843;DHT22;407;48.884;9.126;2022-10-16T10:36:39;26.70;1.00
843;DHT22;407;48.884;9.126;2022-10-16T10:58:10;25.50;1.00
843;DHT22;407;48.884;9.126;2022-10-16T11:01:07;26.10;1.00
843;DHT22;407;48.884;9.126;2022-10-16T11:04:01;25.80;1.00
843;DHT22;407;48.884;9.126;2022-10-16T11:06:40;25.60;1.00
843;DHT22;407;48.884;9.126;2022-10-16T11:09:15;25.70;1.00
843;DHT22;407;48.884;9.126;2022-10-16T11:14:26;26.60;1.00
843;DHT22;407;48.884;9.126;2022-10-16T11:16:58;26.70;1.00
843;DHT22;407;48.884;9.126;2022-10-16T11:19:53;26.70;1.00
843;DHT22;407;48.884;9.126;2022-10-16T11:22:34;26.20;1.00
843;DHT22;407;48.884;9.126;2022-10-16T11:27:47;25.60;1.00
843;DHT22;407;48.884;9.126;2022-10-16T11:30:24;25.40;1.00
843;DHT22;407;48.884;9.126;2022-10-16T11:46:32;25.20;1.00
843;DHT22;407;48.884;9.126;2022-10-16T11:51:45;25.40;1.00
843;DHT22;407;48.884;9.126;2022-10-16T11:54:28;25.60;1.00
843;DHT22;407;48.884;9.126;2022-10-16T11:57:02;25.60;1.00
843;DHT22;407;48.884;9.126;2022-10-16T12:02:45;25.20;1.00
843;DHT22;407;48.884;9.126;2022-10-16T12:08:12;25.30;1.00
843;DHT22;407;48.884;9.126;2022-10-16T12:10:40;25.30;1.00
843;DHT22;407;48.884;9.126;2022-10-16T12:13:39;25.10;1.00
843;DHT22;407;48.884;9.126;2022-10-16T12:18:37;25.10;1.00
843;DHT22;407;48.884;9.126;2022-10-16T12:21:03;25.10;1.00
843;DHT22;407;48.884;9.126;2022-10-16T12:23:36;25.00;1.00
843;DHT22;407;48.884;9.126;2022-10-16T12:26:02;24.90;1.00
843;DHT22;407;48.884;9.126;2022-10-16T12:28:30;24.90;1.00
843;DHT22;407;48.884;9.126;2022-10-16T12:31:05;25.00;1.00
843;DHT22;407;48.884;9.126;2022-10-16T12:33:37;25.40;1.00
843;DHT22;407;48.884;9.126;2022-10-16T12:36:13;25.50;1.00
843;DHT22;407;48.884;9.126;2022-10-16T12:38:49;25.50;1.00
843;DHT22;407;48.884;9.126;2022-10-16T12:41:28;25.50;1.00
843;DHT22;407;48.884;9.126;2022-10-16T12:43:54;25.60;1.00
843;DHT22;407;48.884;9.126;2022-10-16T12:51:41;25.90;1.00
843;DHT22;407;48.884;9.126;2022-10-16T12:56:55;25.80;1.00
843;DHT22;407;48.884;9.126;2022-10-16T13:10:28;25.50;1.00
843;DHT22;407;48.884;9.126;2022-10-16T13:16:14;25.30;1.00
843;DHT22;407;48.884;9.126;2022-10-16T13:18:57;25.30;1.00
843;DHT22;407;48.884;9.126;2022-10-16T13:30:11;25.30;1.00
843;DHT22;407;48.884;9.126;2022-10-16T13:32:38;25.20;99.90
843;DHT22;407;48.884;9.126;2022-10-16T13:35:25;25.40;1.00
843;DHT22;407;48.884;9.126;2022-10-16T13:37:51;25.40;1.00
843;DHT22;407;48.884;9.126;2022-10-16T13:40:24;25.20;99.90
843;DHT22;407;48.884;9.126;2022-10-16T13:42:50;25.30;99.90
843;DHT22;407;48.884;9.126;2022-10-16T13:45:20;25.20;99.90
843;DHT22;407;48.884;9.126;2022-10-16T13:47:46;25.00;99.90
843;DHT22;407;48.884;9.126;2022-10-16T13:50:14;24.60;99.90
843;DHT22;407;48.884;9.126;2022-10-16T13:52:40;24.60;1.00
843;DHT22;407;48.884;9.126;2022-10-16T13:55:17;24.50;99.90
843;DHT22;407;48.884;9.126;2022-10-16T13:57:44;24.80;99.90
843;DHT22;407;48.884;9.126;2022-10-16T14:00:25;24.70;1.00
843;DHT22;407;48.884;9.126;2022-10-16T14:03:02;24.70;1.00
843;DHT22;407;48.884;9.126;2022-10-16T14:05:28;24.60;99.90
843;DHT22;407;48.884;9.126;2022-10-16T14:07:55;24.60;99.90
843;DHT22;407;48.884;9.126;2022-10-16T14:10:30;24.70;1.00
843;DHT22;407;48.884;9.126;2022-10-16T14:13:01;24.60;1.00
843;DHT22;407;48.884;9.126;2022-10-16T14:15:27;24.30;1.00
843;DHT22;407;48.884;9.126;2022-10-16T14:17:55;24.10;99.90
843;DHT22;407;48.884;9.126;2022-10-16T14:20:28;24.10;99.90
843;DHT22;407;48.884;9.126;2022-10-16T14:23:17;24.00;1.00
843;DHT22;407;48.884;9.126;2022-10-16T14:25:44;24.10;1.00
843;DHT22;407;48.884;9.126;2022-10-16T14:30:52;23.80;99.90
843;DHT22;407;48.884;9.126;2022-10-16T14:33:45;23.70;99.90
843;DHT22;407;48.884;9.126;2022-10-16T14:36:12;23.70;99.90
843;DHT22;407;48.884;9.126;2022-10-16T14:38:41;23.80;99.90
843;DHT22;407;48.884;9.126;2022-10-16T14:41:07;23.90;1.00
843;DHT22;407;48.884;9.126;2022-10-16T14:43:35;24.00;1.00
843;DHT22;407;48.884;9.126;2022-10-16T14:46:05;24.10;1.00
843;DHT22;407;48.884;9.126;2022-10-16T14:48:32;24.20;1.00
843;DHT22;407;48.884;9.126;2022-10-16T14:50:58;24.30;1.00
843;DHT22;407;48.884;9.126;2022-10-16T14:53:23;24.40;1.00
843;DHT22;407;48.884;9.126;2022-10-16T14:55:49;24.50;1.00
843;DHT22;407;48.884;9.126;2022-10-16T14:58:20;24.60;1.00
843;DHT22;407;48.884;9.126;2022-10-16T15:00:46;24.60;1.00
843;DHT22;407;48.884;9.126;2022-10-16T15:03:12;24.60;99.90
843;DHT22;407;48.884;9.126;2022-10-16T15:05:38;24.60;99.90
843;DHT22;407;48.884;9.126;2022-10-16T15:08:03;24.50;99.90
843;DHT22;407;48.884;9.126;2022-10-16T15:10:31;24.60;99.90
843;DHT22;407;48.884;9.126;2022-10-16T15:12:58;24.60;99.90
843;DHT22;407;48.884;9.126;2022-10-16T15:15:29;24.60;99.90
843;DHT22;407;48.884;9.126;2022-10-16T15:17:56;24.60;99.90
843;DHT22;407;48.884;9.126;2022-10-16T15:20:26;25.60;99.90
843;DHT22;407;48.884;9.126;2022-10-16T15:22:52;24.50;99.90
843;DHT22;407;48.884;9.126;2022-10-16T15:27:58;24.40;99.90
843;DHT22;407;48.884;9.126;2022-10-16T15:30:24;24.30;1.00
843;DHT22;407;48.884;9.126;2022-10-16T15:32:50;24.30;99.90
843;DHT22;407;48.884;9.126;2022-10-16T15:35:16;24.10;1.00
843;DHT22;407;48.884;9.126;2022-10-16T15:37:42;24.00;99.90
843;DHT22;407;48.884;9.126;2022-10-16T15:40:09;23.90;99.90
843;DHT22;407;48.884;9.126;2022-10-16T15:42:35;23.80;99.90
843;DHT22;407;48.884;9.126;2022-10-16T15:45:01;23.80;99.90
843;DHT22;407;48.884;9.126;2022-10-16T15:47:27;23.80;99.90
843;DHT22;407;48.884;9.126;2022-10-16T15:49:52;23.80;99.90
843;DHT22;407;48.884;9.126;2022-10-16T15:52:18;23.70;99.90
843;DHT22;407;48.884;9.126;2022-10-16T15:54:43;23.70;99.90
843;DHT22;407;48.884;9.126;2022-10-16T15:57:09;23.70;99.90
843;DHT22;407;48.884;9.126;2022-10-16T15:59:35;23.70;99.90
843;DHT22;407;48.884;9.126;2022-10-16T16:02:00;23.70;99.90
843;DHT22;407;48.884;9.126;2022-10-16T16:04:26;23.60;99.90
843;DHT22;407;48.884;9.126;2022-10-16T16:06:51;23.50;99.90
843;DHT22;407;48.884;9.126;2022-10-16T16:09:17;23.30;99.90
843;DHT22;407;48.884;9.126;2022-10-16T16:11:43;23.20;99.90
843;DHT22;407;48.884;9.126;2022-10-16T16:14:12;23.20;1.00
843;DHT22;407;48.884;9.126;2022-10-16T16:16:38;22.90;1.00
843;DHT22;407;48.884;9.126;2022-10-16T16:19:05;22.80;1.00
843;DHT22;407;48.884;9.126;2022-10-16T16:21:31;22.80;1.00
843;DHT22;407;48.884;9.126;2022-10-16T16:23:57;22.70;1.00
843;DHT22;407;48.884;9.126;2022-10-16T16:26:29;22.60;1.00
843;DHT22;407;48.884;9.126;2022-10-16T16:28:59;22.40;1.00
843;DHT22;407;48.884;9.126;2022-10-16T16:31:27;22.30;1.00
843;DHT22;407;48.884;9.126;2022-10-16T16:33:53;22.10;1.00
843;DHT22;407;48.884;9.126;2022-10-16T16:36:19;22.00;1.00
843;DHT22;407;48.884;9.126;2022-10-16T16:38:45;21.90;1.00
843;DHT22;407;48.884;9.126;2022-10-16T16:41:19;21.70;1.00
843;DHT22;407;48.884;9.126;2022-10-16T16:43:45;21.60;1.00
843;DHT22;407;48.884;9.126;2022-10-16T16:46:12;21.60;1.00
843;DHT22;407;48.884;9.126;2022-10-16T16:48:39;21.50;14.90
843;DHT22;407;48.884;9.126;2022-10-16T16:51:05;21.40;91.10
843;DHT22;407;48.884;9.126;2022-10-16T16:53:33;21.30;99.90
843;DHT22;407;48.884;9.126;2022-10-16T16:56:04;21.20;1.00
843;DHT22;407;48.884;9.126;2022-10-16T16:58:30;21.20;90.60
843;DHT22;407;48.884;9.126;2022-10-16T17:00:56;21.00;1.00
843;DHT22;407;48.884;9.126;2022-10-16T17:03:26;21.00;99.90
843;DHT22;407;48.884;9.126;2022-10-16T17:06:03;20.90;99.90
843;DHT22;407;48.884;9.126;2022-10-16T17:08:29;20.80;1.00
843;DHT22;407;48.884;9.126;2022-10-16T17:10:56;20.80;1.00
843;DHT22;407;48.884;9.126;2022-10-16T17:13:27;20.70;1.00
843;DHT22;407;48.884;9.126;2022-10-16T17:15:53;20.70;99.90
843;DHT22;407;48.884;9.126;2022-10-16T17:18:20;20.60;99.90
843;DHT22;407;48.884;9.126;2022-10-16T17:20:46;20.50;99.90
843;DHT22;407;48.884;9.126;2022-10-16T17:23:13;20.50;1.00
843;DHT22;407;48.884;9.126;2022-10-16T17:25:39;20.60;99.90
843;DHT22;407;48.884;9.126;2022-10-16T17:28:06;20.60;99.90
843;DHT22;407;48.884;9.126;2022-10-16T17:30:33;20.50;1.00
843;DHT22;407;48.884;9.126;2022-10-16T17:33:00;20.40;29.20
843;DHT22;407;48.884;9.126;2022-10-16T17:35:26;20.30;29.50
843;DHT22;407;48.884;9.126;2022-10-16T17:37:52;20.10;1.00
843;DHT22;407;48.884;9.126;2022-10-16T17:40:18;19.90;1.00
843;DHT22;407;48.884;9.126;2022-10-16T17:42:44;19.70;24.60
843;DHT22;407;48.884;9.126;2022-10-16T17:45:10;19.60;99.90
843;DHT22;407;48.884;9.126;2022-10-16T17:47:35;19.60;99.90
843;DHT22;407;48.884;9.126;2022-10-16T17:50:02;19.50;99.90
843;DHT22;407;48.884;9.126;2022-10-16T17:52:28;19.50;99.90
843;DHT22;407;48.884;9.126;2022-10-16T17:54:54;19.40;1.00
843;DHT22;407;48.884;9.126;2022-10-16T17:57:21;19.40;99.90
843;DHT22;407;48.884;9.126;2022-10-16T17:59:47;19.30;1.00
843;DHT22;407;48.884;9.126;2022-10-16T18:02:12;19.30;99.90
843;DHT22;407;48.884;9.126;2022-10-16T18:04:39;19.30;99.90
843;DHT22;407;48.884;9.126;2022-10-16T18:07:04;19.30;1.00
843;DHT22;407;48.884;9.126;2022-10-16T18:09:31;19.30;1.00
843;DHT22;407;48.884;9.126;2022-10-16T18:11:56;19.20;1.00
843;DHT22;407;48.884;9.126;2022-10-16T18:14:27;19.20;1.00
843;DHT22;407;48.884;9.126;2022-10-16T18:16:54;19.10;1.00
843;DHT22;407;48.884;9.126;2022-10-16T18:19:20;19.00;99.90
843;DHT22;407;48.884;9.126;2022-10-16T18:21:46;18.90;36.40
843;DHT22;407;48.884;9.126;2022-10-16T18:24:14;18.90;99.90
843;DHT22;407;48.884;9.126;2022-10-16T18:26:40;18.90;99.90
843;DHT22;407;48.884;9.126;2022-10-16T18:29:06;18.90;99.90
843;DHT22;407;48.884;9.126;2022-10-16T18:31:34;18.90;99.90
843;DHT22;407;48.884;9.126;2022-10-16T18:34:00;18.90;14.70
843;DHT22;407;48.884;9.126;2022-10-16T18:36:31;18.90;82.60
843;DHT22;407;48.884;9.126;2022-10-16T18:38:57;18.80;99.90
843;DHT22;407;48.884;9.126;2022-10-16T18:41:24;18.70;99.90
843;DHT22;407;48.884;9.126;2022-10-16T18:43:50;18.70;1.00
843;DHT22;407;48.884;9.126;2022-10-16T18:46:18;18.70;1.00
843;DHT22;407;48.884;9.126;2022-10-16T18:48:45;18.40;1.00
843;DHT22;407;48.884;9.126;2022-10-16T18:53:52;18.60;1.00
843;DHT22;407;48.884;9.126;2022-10-16T18:56:20;18.60;3.20
843;DHT22;407;48.884;9.126;2022-10-16T18:58:46;18.50;1.00
843;DHT22;407;48.884;9.126;2022-10-16T19:01:22;18.50;1.00
843;DHT22;407;48.884;9.126;2022-10-16T19:03:53;18.40;99.90